sensor_id;sensor_type;location;lat;lon;timestamp;pressure;altitude;pressure_sealevel;temperature;humidity
32733;BME280;11867;51.198;11.966;2023-04-02T00:00:04;99757.88;;;5.96;100.00
32733;BME280;11867;51.198;11.966;2023-04-02T00:01:19;99756.75;;;5.92;100.00
32733;BME280;11867;51.198;11.966;2023-04-02T00:02:26;99755.66;;;5.93;100.00
32733;BME280;11867;51.198;11.966;2023-04-02T00:04:02;99758.66;;;5.92;100.00
32733;BME280;11867;51.198;11.966;2023-04-02T00:05:28;99766.19;;;5.79;100.00
32733;BME280;11867;51.198;11.966;2023-04-02T00:06:32;99774.84;;;5.81;100.00
32733;BME280;11867;51.198;11.966;2023-04-02T00:07:41;99775.41;;;5.83;100.00
32733;BME280;11867;51.198;11.966;2023-04-02T00:08:45;99780.25;;;5.86;100.00
32733;BME280;11867;51.198;11.966;2023-04-02T00:09:49;99774.03;;;5.86;100.00
32733;BME280;11867;51.198;11.966;2023-04-02T00:10:53;99775.22;;;6.00;100.00
32733;BME280;11867;51.198;11.966;2023-04-02T00:11:57;99776.38;;;5.67;100.00
32733;BME280;11867;51.198;11.966;2023-04-02T00:13:03;99781.00;;;5.72;100.00
32733;BME280;11867;51.198;11.966;2023-04-02T00:14:15;99779.75;;;5.90;100.00
32733;BME280;11867;51.198;11.966;2023-04-02T00:15:16;99790.16;;;5.65;100.00
32733;BME280;11867;51.198;11.966;2023-04-02T00:16:22;99787.22;;;5.67;100.00
32733;BME280;11867;51.198;11.966;2023-04-02T00:17:25;99782.03;;;5.60;100.00
32733;BME280;11867;51.198;11.966;2023-04-02T00:18:28;99790.97;;;5.66;100.00
32733;BME280;11867;51.198;11.966;2023-04-02T00:19:35;99794.63;;;5.87;100.00
32733;BME280;11867;51.198;11.966;2023-04-02T00:20:40;99790.63;;;5.95;100.00
32733;BME280;11867;51.198;11.966;2023-04-02T00:21:44;99800.84;;;5.88;100.00
32733;BME280;11867;51.198;11.966;2023-04-02T00:22:47;99800.59;;;5.89;100.00
32733;BME280;11867;51.198;11.966;2023-04-02T00:23:52;99800.22;;;5.75;100.00
32733;BME280;11867;51.198;11.966;2023-04-02T00:24:55;99805.16;;;5.89;100.00
32733;BME280;11867;51.198;11.966;2023-04-02T00:25:59;99806.94;;;6.10;100.00
32733;BME280;11867;51.198;11.966;2023-04-02T00:27:02;99807.56;;;6.38;100.00
32733;BME280;11867;51.198;11.966;2023-04-02T00:28:03;99804.31;;;6.36;100.00
32733;BME280;11867;51.198;11.966;2023-04-02T00:29:06;99807.25;;;6.24;100.00
32733;BME280;11867;51.198;11.966;2023-04-02T00:30:11;99811.34;;;6.26;100.00
32733;BME280;11867;51.198;11.966;2023-04-02T00:31:16;99822.09;;;6.11;100.00
32733;BME280;11867;51.198;11.966;2023-04-02T00:32:22;99818.66;;;6.31;100.00
32733;BME280;11867;51.198;11.966;2023-04-02T00:33:27;99819.63;;;6.04;100.00
32733;BME280;11867;51.198;11.966;2023-04-02T00:34:35;99816.16;;;6.19;100.00
32733;BME280;11867;51.198;11.966;2023-04-02T00:35:38;99828.31;;;6.12;100.00
32733;BME280;11867;51.198;11.966;2023-04-02T00:36:43;99818.81;;;6.04;100.00
32733;BME280;11867;51.198;11.966;2023-04-02T00:37:48;99824.31;;;5.77;100.00
32733;BME280;11867;51.198;11.966;2023-04-02T00:38:50;99828.66;;;5.78;100.00
32733;BME280;11867;51.198;11.966;2023-04-02T00:39:57;99826.84;;;5.94;100.00
32733;BME280;11867;51.198;11.966;2023-04-02T00:41:04;99832.75;;;5.85;100.00
32733;BME280;11867;51.198;11.966;2023-04-02T00:42:10;99828.94;;;5.81;100.00
32733;BME280;11867;51.198;11.966;2023-04-02T00:43:14;99831.91;;;5.80;100.00
32733;BME280;11867;51.198;11.966;2023-04-02T00:44:17;99836.13;;;5.65;100.00
32733;BME280;11867;51.198;11.966;2023-04-02T00:45:24;99843.13;;;5.99;100.00
32733;BME280;11867;51.198;11.966;2023-04-02T00:46:30;99840.53;;;6.14;100.00
32733;BME280;11867;51.198;11.966;2023-04-02T00:47:36;99842.53;;;6.39;100.00
32733;BME280;11867;51.198;11.966;2023-04-02T00:48:43;99843.81;;;6.26;100.00
32733;BME280;11867;51.198;11.966;2023-04-02T00:49:52;99849.00;;;5.91;100.00
32733;BME280;11867;51.198;11.966;2023-04-02T00:50:59;99846.97;;;6.08;100.00
32733;BME280;11867;51.198;11.966;2023-04-02T00:52:05;99844.78;;;6.05;100.00
32733;BME280;11867;51.198;11.966;2023-04-02T00:53:12;99859.47;;;6.14;100.00
32733;BME280;11867;51.198;11.966;2023-04-02T00:54:19;99855.16;;;6.23;100.00
32733;BME280;11867;51.198;11.966;2023-04-02T00:55:24;99856.97;;;6.07;100.00
32733;BME280;11867;51.198;11.966;2023-04-02T00:56:31;99864.53;;;6.05;100.00
32733;BME280;11867;51.198;11.966;2023-04-02T00:57:35;99860.63;;;5.86;100.00
32733;BME280;11867;51.198;11.966;2023-04-02T00:58:37;99869.13;;;6.00;100.00
32733;BME280;11867;51.198;11.966;2023-04-02T00:59:47;99861.97;;;5.83;100.00
32733;BME280;11867;51.198;11.966;2023-04-02T01:00:50;99862.44;;;5.75;100.00
32733;BME280;11867;51.198;11.966;2023-04-02T01:01:57;99867.88;;;5.80;100.00
32733;BME280;11867;51.198;11.966;2023-04-02T01:03:28;99870.63;;;5.85;100.00
32733;BME280;11867;51.198;11.966;2023-04-02T01:04:35;99863.50;;;5.74;100.00
32733;BME280;11867;51.198;11.966;2023-04-02T01:05:37;99873.34;;;5.91;100.00
32733;BME280;11867;51.198;11.966;2023-04-02T01:06:41;99875.41;;;6.11;100.00
32733;BME280;11867;51.198;11.966;2023-04-02T01:07:53;99874.06;;;6.13;100.00
32733;BME280;11867;51.198;11.966;2023-04-02T01:09:16;99877.00;;;6.06;100.00
32733;BME280;11867;51.198;11.966;2023-04-02T01:10:34;99879.81;;;5.84;100.00
32733;BME280;11867;51.198;11.966;2023-04-02T01:11:56;99872.03;;;5.56;100.00
32733;BME280;11867;51.198;11.966;2023-04-02T01:13:10;99882.44;;;5.74;100.00
32733;BME280;11867;51.198;11.966;2023-04-02T01:14:19;99888.66;;;5.70;100.00
32733;BME280;11867;51.198;11.966;2023-04-02T01:15:32;99883.38;;;5.90;100.00
32733;BME280;11867;51.198;11.966;2023-04-02T01:16:44;99889.41;;;5.33;100.00
32733;BME280;11867;51.198;11.966;2023-04-02T01:18:07;99891.53;;;5.25;100.00
32733;BME280;11867;51.198;11.966;2023-04-02T01:19:31;99887.94;;;5.47;100.00
32733;BME280;11867;51.198;11.966;2023-04-02T01:21:15;99894.91;;;5.43;100.00
32733;BME280;11867;51.198;11.966;2023-04-02T01:22:27;99896.00;;;5.42;100.00
32733;BME280;11867;51.198;11.966;2023-04-02T01:23:44;99903.75;;;5.65;100.00
32733;BME280;11867;51.198;11.966;2023-04-02T01:24:49;99897.94;;;5.79;100.00
32733;BME280;11867;51.198;11.966;2023-04-02T01:25:55;99898.63;;;6.01;100.00
32733;BME280;11867;51.198;11.966;2023-04-02T01:27:03;99905.41;;;6.04;100.00
32733;BME280;11867;51.198;11.966;2023-04-02T01:28:10;99909.72;;;6.00;100.00
32733;BME280;11867;51.198;11.966;2023-04-02T01:29:22;99907.41;;;5.81;100.00
32733;BME280;11867;51.198;11.966;2023-04-02T01:30:27;99910.03;;;5.71;100.00
32733;BME280;11867;51.198;11.966;2023-04-02T01:31:29;99909.09;;;5.55;100.00
32733;BME280;11867;51.198;11.966;2023-04-02T01:32:33;99917.53;;;5.64;100.00
32733;BME280;11867;51.198;11.966;2023-04-02T01:33:36;99906.78;;;5.69;100.00
32733;BME280;11867;51.198;11.966;2023-04-02T01:34:39;99918.53;;;5.53;100.00
32733;BME280;11867;51.198;11.966;2023-04-02T01:35:43;99915.84;;;5.53;100.00
32733;BME280;11867;51.198;11.966;2023-04-02T01:37:01;99929.50;;;5.41;100.00
32733;BME280;11867;51.198;11.966;2023-04-02T01:38:08;99931.97;;;5.42;100.00
32733;BME280;11867;51.198;11.966;2023-04-02T01:39:26;99925.69;;;5.37;100.00
32733;BME280;11867;51.198;11.966;2023-04-02T01:40:36;99929.09;;;5.54;100.00
32733;BME280;11867;51.198;11.966;2023-04-02T01:41:44;99934.41;;;5.44;100.00
32733;BME280;11867;51.198;11.966;2023-04-02T01:42:53;99934.56;;;5.32;100.00
32733;BME280;11867;51.198;11.966;2023-04-02T01:44:02;99942.53;;;5.44;100.00
32733;BME280;11867;51.198;11.966;2023-04-02T01:45:09;99942.97;;;5.63;100.00
32733;BME280;11867;51.198;11.966;2023-04-02T01:46:23;99944.63;;;5.69;100.00
32733;BME280;11867;51.198;11.966;2023-04-02T01:47:26;99949.63;;;5.50;100.00
32733;BME280;11867;51.198;11.966;2023-04-02T01:48:30;99954.19;;;5.50;100.00
32733;BME280;11867;51.198;11.966;2023-04-02T01:49:32;99948.69;;;5.39;100.00
32733;BME280;11867;51.198;11.966;2023-04-02T01:50:35;99948.53;;;5.24;100.00
32733;BME280;11867;51.198;11.966;2023-04-02T01:51:42;99960.03;;;5.09;100.00
32733;BME280;11867;51.198;11.966;2023-04-02T01:52:48;99958.56;;;5.01;100.00
32733;BME280;11867;51.198;11.966;2023-04-02T01:53:51;99962.66;;;5.04;100.00
32733;BME280;11867;51.198;11.966;2023-04-02T01:54:55;99960.81;;;5.10;100.00
32733;BME280;11867;51.198;11.966;2023-04-02T01:55:59;99957.25;;;5.31;100.00
32733;BME280;11867;51.198;11.966;2023-04-02T01:57:06;99961.00;;;5.25;100.00
32733;BME280;11867;51.198;11.966;2023-04-02T01:58:09;99970.63;;;5.43;100.00
32733;BME280;11867;51.198;11.966;2023-04-02T01:59:14;99970.81;;;5.09;100.00
32733;BME280;11867;51.198;11.966;2023-04-02T02:00:19;99981.41;;;4.89;100.00
32733;BME280;11867;51.198;11.966;2023-04-02T02:01:25;99980.59;;;4.88;100.00
32733;BME280;11867;51.198;11.966;2023-04-02T02:02:29;99978.25;;;4.97;100.00
32733;BME280;11867;51.198;11.966;2023-04-02T02:03:32;99983.66;;;4.97;100.00
32733;BME280;11867;51.198;11.966;2023-04-02T02:04:34;99978.31;;;4.80;100.00
32733;BME280;11867;51.198;11.966;2023-04-02T02:05:37;99985.03;;;4.77;100.00
32733;BME280;11867;51.198;11.966;2023-04-02T02:06:39;99986.03;;;4.71;100.00
32733;BME280;11867;51.198;11.966;2023-04-02T02:07:42;99987.28;;;4.85;100.00
32733;BME280;11867;51.198;11.966;2023-04-02T02:08:46;99981.44;;;5.16;100.00
32733;BME280;11867;51.198;11.966;2023-04-02T02:09:51;99981.44;;;5.16;100.00
32733;BME280;11867;51.198;11.966;2023-04-02T02:10:53;99996.28;;;5.13;100.00
32733;BME280;11867;51.198;11.966;2023-04-02T02:11:56;99996.66;;;5.27;100.00
32733;BME280;11867;51.198;11.966;2023-04-02T02:12:58;99989.88;;;4.97;100.00
32733;BME280;11867;51.198;11.966;2023-04-02T02:14:05;99999.75;;;4.87;100.00
32733;BME280;11867;51.198;11.966;2023-04-02T02:15:15;99999.78;;;5.14;100.00
32733;BME280;11867;51.198;11.966;2023-04-02T02:16:18;99998.66;;;5.10;100.00
32733;BME280;11867;51.198;11.966;2023-04-02T02:17:26;100005.19;;;5.14;100.00
32733;BME280;11867;51.198;11.966;2023-04-02T02:18:28;100010.88;;;4.90;100.00
32733;BME280;11867;51.198;11.966;2023-04-02T02:19:35;100004.94;;;4.93;100.00
32733;BME280;11867;51.198;11.966;2023-04-02T02:20:37;100009.22;;;4.89;100.00
32733;BME280;11867;51.198;11.966;2023-04-02T02:21:42;100011.00;;;5.00;100.00
32733;BME280;11867;51.198;11.966;2023-04-02T02:22:46;100014.13;;;4.92;100.00
32733;BME280;11867;51.198;11.966;2023-04-02T02:23:50;100014.16;;;4.75;100.00
32733;BME280;11867;51.198;11.966;2023-04-02T02:24:52;100011.78;;;4.57;100.00
32733;BME280;11867;51.198;11.966;2023-04-02T02:25:55;100014.69;;;4.72;100.00
32733;BME280;11867;51.198;11.966;2023-04-02T02:27:07;100016.13;;;4.80;100.00
32733;BME280;11867;51.198;11.966;2023-04-02T02:28:18;100025.84;;;4.81;100.00
32733;BME280;11867;51.198;11.966;2023-04-02T02:29:22;100017.50;;;4.82;100.00
32733;BME280;11867;51.198;11.966;2023-04-02T02:30:30;100035.19;;;4.73;100.00
32733;BME280;11867;51.198;11.966;2023-04-02T02:31:35;100024.28;;;4.85;100.00
32733;BME280;11867;51.198;11.966;2023-04-02T02:32:51;100026.63;;;4.98;100.00
32733;BME280;11867;51.198;11.966;2023-04-02T02:33:57;100033.22;;;5.08;100.00
32733;BME280;11867;51.198;11.966;2023-04-02T02:35:09;100037.69;;;4.97;100.00
32733;BME280;11867;51.198;11.966;2023-04-02T02:36:15;100040.75;;;5.05;100.00
32733;BME280;11867;51.198;11.966;2023-04-02T02:37:25;100043.66;;;5.21;100.00
32733;BME280;11867;51.198;11.966;2023-04-02T02:38:39;100043.03;;;5.14;100.00
32733;BME280;11867;51.198;11.966;2023-04-02T02:39:45;100045.91;;;4.85;100.00
32733;BME280;11867;51.198;11.966;2023-04-02T02:40:53;100053.06;;;4.74;100.00
32733;BME280;11867;51.198;11.966;2023-04-02T02:42:00;100051.53;;;5.00;100.00
32733;BME280;11867;51.198;11.966;2023-04-02T02:43:08;100052.63;;;4.82;100.00
32733;BME280;11867;51.198;11.966;2023-04-02T02:44:16;100058.94;;;4.71;100.00
32733;BME280;11867;51.198;11.966;2023-04-02T02:45:24;100055.66;;;4.69;100.00
32733;BME280;11867;51.198;11.966;2023-04-02T02:46:28;100059.31;;;4.58;100.00
32733;BME280;11867;51.198;11.966;2023-04-02T02:47:35;100068.03;;;4.65;100.00
32733;BME280;11867;51.198;11.966;2023-04-02T02:48:39;100068.16;;;4.36;100.00
32733;BME280;11867;51.198;11.966;2023-04-02T02:49:44;100066.94;;;4.27;100.00
32733;BME280;11867;51.198;11.966;2023-04-02T02:50:48;100065.22;;;4.21;100.00
32733;BME280;11867;51.198;11.966;2023-04-02T02:51:57;100063.91;;;4.23;100.00
32733;BME280;11867;51.198;11.966;2023-04-02T02:53:07;100071.69;;;4.37;100.00
32733;BME280;11867;51.198;11.966;2023-04-02T02:54:16;100077.63;;;4.56;100.00
32733;BME280;11867;51.198;11.966;2023-04-02T02:55:21;100080.00;;;4.52;100.00
32733;BME280;11867;51.198;11.966;2023-04-02T02:56:29;100076.47;;;4.69;100.00
32733;BME280;11867;51.198;11.966;2023-04-02T02:57:34;100074.38;;;4.37;100.00
32733;BME280;11867;51.198;11.966;2023-04-02T02:58:38;100081.00;;;4.46;100.00
32733;BME280;11867;51.198;11.966;2023-04-02T02:59:41;100085.41;;;4.52;100.00
32733;BME280;11867;51.198;11.966;2023-04-02T03:00:45;100082.97;;;4.34;100.00
32733;BME280;11867;51.198;11.966;2023-04-02T03:01:47;100079.38;;;4.45;100.00
32733;BME280;11867;51.198;11.966;2023-04-02T03:02:52;100093.91;;;4.78;100.00
32733;BME280;11867;51.198;11.966;2023-04-02T03:03:56;100086.22;;;4.70;100.00
32733;BME280;11867;51.198;11.966;2023-04-02T03:04:59;100090.97;;;4.62;100.00
32733;BME280;11867;51.198;11.966;2023-04-02T03:06:04;100093.78;;;4.51;100.00
32733;BME280;11867;51.198;11.966;2023-04-02T03:07:08;100091.47;;;4.25;100.00
32733;BME280;11867;51.198;11.966;2023-04-02T03:08:17;100090.75;;;4.30;100.00
32733;BME280;11867;51.198;11.966;2023-04-02T03:09:30;100093.09;;;4.60;100.00
32733;BME280;11867;51.198;11.966;2023-04-02T03:10:39;100102.84;;;4.61;100.00
32733;BME280;11867;51.198;11.966;2023-04-02T03:11:49;100097.75;;;4.48;100.00
32733;BME280;11867;51.198;11.966;2023-04-02T03:12:57;100093.84;;;4.56;100.00
32733;BME280;11867;51.198;11.966;2023-04-02T03:14:11;100103.97;;;4.65;100.00
32733;BME280;11867;51.198;11.966;2023-04-02T03:15:20;100108.88;;;4.69;100.00
32733;BME280;11867;51.198;11.966;2023-04-02T03:16:27;100108.97;;;4.74;100.00
32733;BME280;11867;51.198;11.966;2023-04-02T03:17:36;100108.28;;;4.83;100.00
32733;BME280;11867;51.198;11.966;2023-04-02T03:18:46;100110.13;;;5.00;100.00
32733;BME280;11867;51.198;11.966;2023-04-02T03:19:55;100119.69;;;4.69;100.00
32733;BME280;11867;51.198;11.966;2023-04-02T03:21:01;100110.53;;;4.36;100.00
32733;BME280;11867;51.198;11.966;2023-04-02T03:22:13;100118.53;;;4.64;100.00
32733;BME280;11867;51.198;11.966;2023-04-02T03:23:21;100123.06;;;4.59;100.00
32733;BME280;11867;51.198;11.966;2023-04-02T03:24:30;100124.63;;;4.55;100.00
32733;BME280;11867;51.198;11.966;2023-04-02T03:25:38;100130.72;;;4.50;100.00
32733;BME280;11867;51.198;11.966;2023-04-02T03:26:45;100122.06;;;4.48;100.00
32733;BME280;11867;51.198;11.966;2023-04-02T03:27:53;100128.03;;;4.33;100.00
32733;BME280;11867;51.198;11.966;2023-04-02T03:29:01;100134.97;;;4.29;100.00
32733;BME280;11867;51.198;11.966;2023-04-02T03:30:19;100131.56;;;4.51;100.00
32733;BME280;11867;51.198;11.966;2023-04-02T03:31:26;100131.94;;;4.25;100.00
32733;BME280;11867;51.198;11.966;2023-04-02T03:32:36;100132.78;;;4.26;100.00
32733;BME280;11867;51.198;11.966;2023-04-02T03:33:43;100134.75;;;4.31;100.00
32733;BME280;11867;51.198;11.966;2023-04-02T03:34:50;100138.66;;;4.40;100.00
32733;BME280;11867;51.198;11.966;2023-04-02T03:35:57;100143.47;;;4.21;100.00
32733;BME280;11867;51.198;11.966;2023-04-02T03:37:07;100140.47;;;4.34;100.00
32733;BME280;11867;51.198;11.966;2023-04-02T03:38:17;100135.50;;;4.43;100.00
32733;BME280;11867;51.198;11.966;2023-04-02T03:39:24;100143.59;;;4.60;100.00
32733;BME280;11867;51.198;11.966;2023-04-02T03:40:32;100154.31;;;4.55;100.00
32733;BME280;11867;51.198;11.966;2023-04-02T03:41:39;100151.44;;;4.44;100.00
32733;BME280;11867;51.198;11.966;2023-04-02T03:42:45;100152.47;;;4.27;100.00
32733;BME280;11867;51.198;11.966;2023-04-02T03:43:52;100157.31;;;4.24;100.00
32733;BME280;11867;51.198;11.966;2023-04-02T03:44:59;100154.59;;;4.24;100.00
32733;BME280;11867;51.198;11.966;2023-04-02T03:46:11;100161.31;;;4.22;100.00
32733;BME280;11867;51.198;11.966;2023-04-02T03:47:22;100161.03;;;4.07;100.00
32733;BME280;11867;51.198;11.966;2023-04-02T03:48:27;100163.38;;;4.03;100.00
32733;BME280;11867;51.198;11.966;2023-04-02T03:49:36;100171.19;;;3.88;100.00
32733;BME280;11867;51.198;11.966;2023-04-02T03:50:43;100173.69;;;4.06;100.00
32733;BME280;11867;51.198;11.966;2023-04-02T03:51:52;100189.53;;;4.02;100.00
32733;BME280;11867;51.198;11.966;2023-04-02T03:52:55;100187.09;;;4.01;100.00
32733;BME280;11867;51.198;11.966;2023-04-02T03:53:58;100178.19;;;4.00;100.00
32733;BME280;11867;51.198;11.966;2023-04-02T03:55:01;100185.31;;;4.07;100.00
32733;BME280;11867;51.198;11.966;2023-04-02T03:56:20;100188.31;;;3.93;100.00
32733;BME280;11867;51.198;11.966;2023-04-02T03:57:32;100188.78;;;4.19;100.00
32733;BME280;11867;51.198;11.966;2023-04-02T03:58:40;100187.66;;;4.32;100.00
32733;BME280;11867;51.198;11.966;2023-04-02T03:59:47;100191.06;;;4.27;100.00
32733;BME280;11867;51.198;11.966;2023-04-02T04:00:56;100198.13;;;4.28;100.00
32733;BME280;11867;51.198;11.966;2023-04-02T04:02:02;100200.25;;;4.26;100.00
32733;BME280;11867;51.198;11.966;2023-04-02T04:03:13;100202.59;;;3.94;100.00
32733;BME280;11867;51.198;11.966;2023-04-02T04:04:17;100202.41;;;3.83;100.00
32733;BME280;11867;51.198;11.966;2023-04-02T04:05:26;100206.09;;;4.06;100.00
32733;BME280;11867;51.198;11.966;2023-04-02T04:06:31;100201.25;;;4.37;100.00
32733;BME280;11867;51.198;11.966;2023-04-02T04:07:35;100211.13;;;4.31;100.00
32733;BME280;11867;51.198;11.966;2023-04-02T04:08:42;100215.72;;;4.31;100.00
32733;BME280;11867;51.198;11.966;2023-04-02T04:09:49;100220.34;;;4.18;100.00
32733;BME280;11867;51.198;11.966;2023-04-02T04:10:52;100219.00;;;4.04;100.00
32733;BME280;11867;51.198;11.966;2023-04-02T04:12:07;100217.34;;;4.03;100.00
32733;BME280;11867;51.198;11.966;2023-04-02T04:13:12;100222.06;;;3.96;100.00
32733;BME280;11867;51.198;11.966;2023-04-02T04:14:18;100233.34;;;3.93;100.00
32733;BME280;11867;51.198;11.966;2023-04-02T04:15:24;100224.69;;;3.91;100.00
32733;BME280;11867;51.198;11.966;2023-04-02T04:16:31;100232.31;;;3.82;100.00
32733;BME280;11867;51.198;11.966;2023-04-02T04:17:43;100233.72;;;3.84;100.00
32733;BME280;11867;51.198;11.966;2023-04-02T04:18:53;100237.19;;;3.97;100.00
32733;BME280;11867;51.198;11.966;2023-04-02T04:20:13;100242.50;;;3.80;100.00
32733;BME280;11867;51.198;11.966;2023-04-02T04:21:21;100254.97;;;3.69;100.00
32733;BME280;11867;51.198;11.966;2023-04-02T04:22:30;100251.47;;;3.69;100.00
32733;BME280;11867;51.198;11.966;2023-04-02T04:23:36;100252.72;;;3.78;100.00
32733;BME280;11867;51.198;11.966;2023-04-02T04:24:38;100257.56;;;3.64;100.00
32733;BME280;11867;51.198;11.966;2023-04-02T04:25:46;100264.09;;;3.80;100.00
32733;BME280;11867;51.198;11.966;2023-04-02T04:26:51;100263.19;;;3.62;100.00
32733;BME280;11867;51.198;11.966;2023-04-02T04:28:02;100269.75;;;3.55;100.00
32733;BME280;11867;51.198;11.966;2023-04-02T04:29:14;100270.25;;;3.52;100.00
32733;BME280;11867;51.198;11.966;2023-04-02T04:30:22;100271.88;;;3.53;100.00
32733;BME280;11867;51.198;11.966;2023-04-02T04:31:29;100264.03;;;3.39;100.00
32733;BME280;11867;51.198;11.966;2023-04-02T04:32:36;100278.91;;;3.54;100.00
32733;BME280;11867;51.198;11.966;2023-04-02T04:33:45;100281.03;;;3.52;100.00
32733;BME280;11867;51.198;11.966;2023-04-02T04:34:53;100278.88;;;3.77;100.00
32733;BME280;11867;51.198;11.966;2023-04-02T04:35:58;100286.25;;;3.82;100.00
32733;BME280;11867;51.198;11.966;2023-04-02T04:37:03;100286.50;;;3.80;100.00
32733;BME280;11867;51.198;11.966;2023-04-02T04:38:12;100283.53;;;3.94;100.00
32733;BME280;11867;51.198;11.966;2023-04-02T04:39:19;100289.28;;;3.97;100.00
32733;BME280;11867;51.198;11.966;2023-04-02T04:40:27;100289.56;;;4.13;100.00
32733;BME280;11867;51.198;11.966;2023-04-02T04:41:33;100292.59;;;4.28;100.00
32733;BME280;11867;51.198;11.966;2023-04-02T04:42:38;100304.88;;;3.95;100.00
32733;BME280;11867;51.198;11.966;2023-04-02T04:43:44;100302.47;;;3.70;100.00
32733;BME280;11867;51.198;11.966;2023-04-02T04:44:54;100307.13;;;3.87;100.00
32733;BME280;11867;51.198;11.966;2023-04-02T04:46:01;100313.28;;;3.99;100.00
32733;BME280;11867;51.198;11.966;2023-04-02T04:47:07;100310.69;;;4.16;100.00
32733;BME280;11867;51.198;11.966;2023-04-02T04:48:16;100316.41;;;4.19;100.00
32733;BME280;11867;51.198;11.966;2023-04-02T04:49:22;100321.75;;;4.02;100.00
32733;BME280;11867;51.198;11.966;2023-04-02T04:50:30;100320.81;;;3.97;100.00
32733;BME280;11867;51.198;11.966;2023-04-02T04:51:36;100324.22;;;4.04;100.00
32733;BME280;11867;51.198;11.966;2023-04-02T04:52:42;100326.16;;;4.20;100.00
32733;BME280;11867;51.198;11.966;2023-04-02T04:53:46;100324.44;;;4.43;100.00
32733;BME280;11867;51.198;11.966;2023-04-02T04:54:49;100330.28;;;4.11;100.00
32733;BME280;11867;51.198;11.966;2023-04-02T04:55:52;100333.88;;;3.76;100.00
32733;BME280;11867;51.198;11.966;2023-04-02T04:57:00;100337.34;;;4.00;100.00
32733;BME280;11867;51.198;11.966;2023-04-02T04:58:10;100325.72;;;4.12;100.00
32733;BME280;11867;51.198;11.966;2023-04-02T04:59:20;100337.09;;;4.14;100.00
32733;BME280;11867;51.198;11.966;2023-04-02T05:00:26;100344.28;;;3.96;100.00
32733;BME280;11867;51.198;11.966;2023-04-02T05:01:36;100339.28;;;4.29;100.00
32733;BME280;11867;51.198;11.966;2023-04-02T05:02:45;100343.78;;;4.11;100.00
32733;BME280;11867;51.198;11.966;2023-04-02T05:03:57;100352.91;;;4.22;100.00
32733;BME280;11867;51.198;11.966;2023-04-02T05:05:01;100352.66;;;4.23;100.00
32733;BME280;11867;51.198;11.966;2023-04-02T05:06:09;100360.19;;;4.21;100.00
32733;BME280;11867;51.198;11.966;2023-04-02T05:07:15;100353.56;;;4.41;100.00
32733;BME280;11867;51.198;11.966;2023-04-02T05:08:23;100367.25;;;3.99;100.00
32733;BME280;11867;51.198;11.966;2023-04-02T05:09:31;100371.25;;;3.61;100.00
32733;BME280;11867;51.198;11.966;2023-04-02T05:10:38;100365.28;;;3.59;100.00
32733;BME280;11867;51.198;11.966;2023-04-02T05:11:44;100368.69;;;3.66;100.00
32733;BME280;11867;51.198;11.966;2023-04-02T05:12:50;100362.59;;;3.71;100.00
32733;BME280;11867;51.198;11.966;2023-04-02T05:13:57;100359.41;;;3.86;100.00
32733;BME280;11867;51.198;11.966;2023-04-02T05:15:07;100372.66;;;3.99;100.00
32733;BME280;11867;51.198;11.966;2023-04-02T05:16:16;100368.53;;;3.96;100.00
32733;BME280;11867;51.198;11.966;2023-04-02T05:17:25;100373.63;;;3.93;100.00
32733;BME280;11867;51.198;11.966;2023-04-02T05:18:33;100374.06;;;3.54;100.00
32733;BME280;11867;51.198;11.966;2023-04-02T05:19:41;100376.66;;;3.61;100.00
32733;BME280;11867;51.198;11.966;2023-04-02T05:20:49;100384.53;;;3.74;100.00
32733;BME280;11867;51.198;11.966;2023-04-02T05:21:56;100383.69;;;3.86;100.00
32733;BME280;11867;51.198;11.966;2023-04-02T05:23:03;100390.94;;;3.97;100.00
32733;BME280;11867;51.198;11.966;2023-04-02T05:25:50;100394.81;;;3.77;100.00
32733;BME280;11867;51.198;11.966;2023-04-02T05:26:57;100393.88;;;3.72;100.00
32733;BME280;11867;51.198;11.966;2023-04-02T05:28:04;100402.09;;;3.65;100.00
32733;BME280;11867;51.198;11.966;2023-04-02T05:29:13;100400.56;;;3.69;100.00
32733;BME280;11867;51.198;11.966;2023-04-02T05:30:37;100406.56;;;3.83;100.00
32733;BME280;11867;51.198;11.966;2023-04-02T05:31:44;100406.09;;;3.86;100.00
32733;BME280;11867;51.198;11.966;2023-04-02T05:32:52;100410.22;;;3.89;100.00
32733;BME280;11867;51.198;11.966;2023-04-02T05:33:55;100409.81;;;4.20;100.00
32733;BME280;11867;51.198;11.966;2023-04-02T05:34:58;100415.66;;;4.53;100.00
32733;BME280;11867;51.198;11.966;2023-04-02T05:36:02;100417.25;;;4.65;100.00
32733;BME280;11867;51.198;11.966;2023-04-02T05:37:12;100415.66;;;4.41;100.00
32733;BME280;11867;51.198;11.966;2023-04-02T05:38:19;100414.13;;;4.33;100.00
32733;BME280;11867;51.198;11.966;2023-04-02T05:39:25;100416.97;;;4.03;100.00
32733;BME280;11867;51.198;11.966;2023-04-02T05:40:31;100437.88;;;3.72;100.00
32733;BME280;11867;51.198;11.966;2023-04-02T05:41:36;100435.84;;;3.68;100.00
32733;BME280;11867;51.198;11.966;2023-04-02T05:42:49;100429.06;;;3.65;100.00
32733;BME280;11867;51.198;11.966;2023-04-02T05:44:03;100435.25;;;3.66;100.00
32733;BME280;11867;51.198;11.966;2023-04-02T05:45:07;100447.13;;;3.64;100.00
32733;BME280;11867;51.198;11.966;2023-04-02T05:46:16;100440.41;;;3.55;100.00
32733;BME280;11867;51.198;11.966;2023-04-02T05:47:21;100449.94;;;3.58;100.00
32733;BME280;11867;51.198;11.966;2023-04-02T05:48:28;100448.53;;;3.79;100.00
32733;BME280;11867;51.198;11.966;2023-04-02T05:49:39;100449.38;;;3.91;100.00
32733;BME280;11867;51.198;11.966;2023-04-02T05:50:43;100445.88;;;3.91;100.00